LVMEP SCSE-SCEL
Flight info
| Callsign | LVMEP |
|---|---|
| Flight time | 0h 57m |
| Altitude | 17000 |
| Route | EDRON5 EDRON L302 SIMOK SIMOK7B |
| Aircraft | BE60/L-SDFGRY/C |
Departure
| Time | 2026-04-22 20:17 |
|---|---|
| Airport | La Florida Airport (SCSE) |
Arrival
| Time | 2026-04-22 21:14 |
|---|---|
| Airport | Comodoro Arturo Merino Benítez International Airport (SCEL) |
| Time | Latitude | Longitude | Altitude | Speed | Heading |
|---|---|---|---|---|---|
| 2026-04-22 20:05 | -29.91721 | -71.20214 | 474 ft | 0 kts | 207° |
| 2026-04-22 20:11 | -29.91722 | -71.20232 | 471 ft | 5 kts | 324° |
| 2026-04-22 20:11 | -29.91679 | -71.20216 | 474 ft | 10 kts | 78° |
| 2026-04-22 20:12 | -29.91653 | -71.20146 | 474 ft | 0 kts | 25° |
| 2026-04-22 20:14 | -29.91640 | -71.20139 | 474 ft | 6 kts | 25° |
| 2026-04-22 20:14 | -29.91594 | -71.20083 | 472 ft | 14 kts | 99° |
| 2026-04-22 20:14 | -29.91642 | -71.19956 | 472 ft | 20 kts | 117° |
| 2026-04-22 20:15 | -29.91714 | -71.19795 | 471 ft | 25 kts | 117° |
| 2026-04-22 20:15 | -29.91798 | -71.19605 | 473 ft | 28 kts | 117° |
| 2026-04-22 20:15 | -29.91887 | -71.19389 | 474 ft | 31 kts | 114° |
| 2026-04-22 20:15 | -29.91986 | -71.19175 | 473 ft | 21 kts | 124° |
| 2026-04-22 20:16 | -29.92028 | -71.19094 | 473 ft | 10 kts | 28° |
| 2026-04-22 20:16 | -29.91962 | -71.19205 | 474 ft | 42 kts | 296° |
| 2026-04-22 20:16 | -29.91737 | -71.19732 | 491 ft | 97 kts | 296° |
| 2026-04-22 20:16 | -29.91396 | -71.20527 | 686 ft | 120 kts | 295° |
| 2026-04-22 20:17 | -29.91019 | -71.21439 | 1028 ft | 132 kts | 294° |
| 2026-04-22 20:17 | -29.90611 | -71.22416 | 1384 ft | 141 kts | 295° |
| 2026-04-22 20:17 | -29.90173 | -71.23456 | 1769 ft | 146 kts | 295° |
| 2026-04-22 20:17 | -29.89727 | -71.24516 | 2125 ft | 148 kts | 295° |
| 2026-04-22 20:18 | -29.89275 | -71.25591 | 2469 ft | 150 kts | 294° |
| 2026-04-22 20:18 | -29.89118 | -71.26750 | 2834 ft | 149 kts | 253° |
| 2026-04-22 20:18 | -29.89698 | -71.27710 | 3176 ft | 148 kts | 213° |
| 2026-04-22 20:18 | -29.90677 | -71.28011 | 3507 ft | 148 kts | 181° |
| 2026-04-22 20:19 | -29.91692 | -71.28033 | 3832 ft | 148 kts | 182° |
| 2026-04-22 20:19 | -29.92740 | -71.28072 | 4154 ft | 149 kts | 182° |
| 2026-04-22 20:19 | -29.93770 | -71.28107 | 4511 ft | 151 kts | 182° |
| 2026-04-22 20:19 | -29.94827 | -71.28141 | 4852 ft | 153 kts | 182° |
| 2026-04-22 20:20 | -29.95896 | -71.28179 | 5167 ft | 155 kts | 182° |
| 2026-04-22 20:20 | -29.96980 | -71.28216 | 5492 ft | 157 kts | 182° |
| 2026-04-22 20:20 | -29.98078 | -71.28253 | 5816 ft | 158 kts | 182° |
| 2026-04-22 20:20 | -29.99187 | -71.28292 | 6134 ft | 161 kts | 182° |
| 2026-04-22 20:21 | -30.00312 | -71.28329 | 6475 ft | 162 kts | 182° |
| 2026-04-22 20:21 | -30.01445 | -71.28369 | 6821 ft | 164 kts | 182° |
| 2026-04-22 20:21 | -30.02589 | -71.28409 | 7169 ft | 165 kts | 182° |
| 2026-04-22 20:21 | -30.03741 | -71.28448 | 7495 ft | 167 kts | 182° |
| 2026-04-22 20:22 | -30.04907 | -71.28487 | 7825 ft | 168 kts | 182° |
| 2026-04-22 20:22 | -30.06082 | -71.28526 | 8147 ft | 170 kts | 182° |
| 2026-04-22 20:22 | -30.07269 | -71.28568 | 8482 ft | 172 kts | 182° |
| 2026-04-22 20:22 | -30.08470 | -71.28608 | 8822 ft | 173 kts | 182° |
| 2026-04-22 20:23 | -30.09683 | -71.28648 | 9159 ft | 175 kts | 182° |
| 2026-04-22 20:23 | -30.10911 | -71.28685 | 9494 ft | 177 kts | 182° |
| 2026-04-22 20:23 | -30.12150 | -71.28725 | 9833 ft | 179 kts | 182° |
| 2026-04-22 20:23 | -30.13403 | -71.28764 | 10171 ft | 181 kts | 182° |
| 2026-04-22 20:24 | -30.14647 | -71.28802 | 10487 ft | 182 kts | 182° |
| 2026-04-22 20:24 | -30.15921 | -71.28841 | 10807 ft | 183 kts | 183° |
| 2026-04-22 20:24 | -30.17194 | -71.28881 | 11147 ft | 183 kts | 183° |
| 2026-04-22 20:24 | -30.18472 | -71.28922 | 11483 ft | 184 kts | 183° |
| 2026-04-22 20:25 | -30.19752 | -71.28962 | 11817 ft | 184 kts | 183° |
| 2026-04-22 20:25 | -30.21036 | -71.29002 | 12130 ft | 185 kts | 183° |
| 2026-04-22 20:25 | -30.22327 | -71.29041 | 12465 ft | 186 kts | 183° |
| 2026-04-22 20:25 | -30.23620 | -71.29081 | 12805 ft | 186 kts | 183° |
| 2026-04-22 20:26 | -30.24918 | -71.29123 | 13174 ft | 187 kts | 183° |
| 2026-04-22 20:26 | -30.26218 | -71.29163 | 13514 ft | 187 kts | 183° |
| 2026-04-22 20:26 | -30.27525 | -71.29204 | 13863 ft | 188 kts | 183° |
| 2026-04-22 20:26 | -30.28834 | -71.29243 | 14196 ft | 188 kts | 181° |
| 2026-04-22 20:27 | -30.30123 | -71.28977 | 14510 ft | 190 kts | 162° |
| 2026-04-22 20:27 | -30.31384 | -71.28510 | 14808 ft | 192 kts | 165° |
| 2026-04-22 20:27 | -30.32685 | -71.28104 | 15104 ft | 195 kts | 167° |
| 2026-04-22 20:27 | -30.34009 | -71.27719 | 15387 ft | 197 kts | 168° |
| 2026-04-22 20:28 | -30.35341 | -71.27327 | 15670 ft | 198 kts | 168° |
| 2026-04-22 20:28 | -30.36682 | -71.26930 | 15961 ft | 199 kts | 167° |
| 2026-04-22 20:28 | -30.38030 | -71.26530 | 16251 ft | 200 kts | 168° |
| 2026-04-22 20:28 | -30.39381 | -71.26129 | 16566 ft | 201 kts | 168° |
| 2026-04-22 20:29 | -30.40738 | -71.25728 | 16878 ft | 201 kts | 168° |
| 2026-04-22 20:29 | -30.42110 | -71.25323 | 17078 ft | 210 kts | 168° |
| 2026-04-22 20:29 | -30.43577 | -71.24890 | 17092 ft | 225 kts | 168° |
| 2026-04-22 20:29 | -30.45134 | -71.24428 | 17089 ft | 237 kts | 168° |
| 2026-04-22 20:30 | -30.46767 | -71.23942 | 17085 ft | 247 kts | 168° |
| 2026-04-22 20:30 | -30.48460 | -71.23439 | 17078 ft | 254 kts | 168° |
| 2026-04-22 20:30 | -30.50191 | -71.22926 | 17084 ft | 260 kts | 168° |
| 2026-04-22 20:30 | -30.51932 | -71.22407 | 17082 ft | 263 kts | 168° |
| 2026-04-22 20:31 | -30.53708 | -71.21878 | 17079 ft | 264 kts | 168° |
| 2026-04-22 20:31 | -30.55487 | -71.21350 | 17074 ft | 264 kts | 168° |
| 2026-04-22 20:31 | -30.57264 | -71.20822 | 17076 ft | 264 kts | 168° |
| 2026-04-22 20:31 | -30.59043 | -71.20293 | 17084 ft | 264 kts | 168° |
| 2026-04-22 20:32 | -30.60829 | -71.19761 | 17076 ft | 264 kts | 168° |
| 2026-04-22 20:32 | -30.62611 | -71.19230 | 17073 ft | 264 kts | 168° |
| 2026-04-22 20:32 | -30.64384 | -71.18701 | 17074 ft | 261 kts | 168° |
| 2026-04-22 20:32 | -30.66152 | -71.18176 | 17072 ft | 263 kts | 168° |
| 2026-04-22 20:33 | -30.67927 | -71.17648 | 17076 ft | 264 kts | 168° |
| 2026-04-22 20:33 | -30.69716 | -71.17115 | 17076 ft | 265 kts | 168° |
| 2026-04-22 20:33 | -30.71501 | -71.16580 | 17075 ft | 265 kts | 168° |
| 2026-04-22 20:33 | -30.73288 | -71.16048 | 17073 ft | 266 kts | 168° |
| 2026-04-22 20:34 | -30.75081 | -71.15513 | 17076 ft | 266 kts | 168° |
| 2026-04-22 20:34 | -30.76872 | -71.14978 | 17072 ft | 265 kts | 167° |
| 2026-04-22 20:34 | -30.78656 | -71.14445 | 17074 ft | 265 kts | 168° |
| 2026-04-22 20:34 | -30.80446 | -71.13909 | 17075 ft | 265 kts | 168° |
| 2026-04-22 20:35 | -30.82233 | -71.13376 | 17074 ft | 265 kts | 168° |
| 2026-04-22 20:35 | -30.84023 | -71.12841 | 17075 ft | 265 kts | 168° |
| 2026-04-22 20:35 | -30.85812 | -71.12306 | 17074 ft | 266 kts | 168° |
| 2026-04-22 20:35 | -30.87604 | -71.11769 | 17078 ft | 266 kts | 167° |
| 2026-04-22 20:36 | -30.89371 | -71.11240 | 17075 ft | 266 kts | 167° |
| 2026-04-22 20:36 | -30.91163 | -71.10703 | 17064 ft | 266 kts | 167° |
| 2026-04-22 20:36 | -30.92944 | -71.10170 | 17077 ft | 264 kts | 168° |
| 2026-04-22 20:36 | -30.94722 | -71.09637 | 17074 ft | 263 kts | 168° |
| 2026-04-22 20:37 | -30.96497 | -71.09104 | 17080 ft | 263 kts | 168° |
| 2026-04-22 20:37 | -30.98271 | -71.08573 | 17079 ft | 263 kts | 168° |
| 2026-04-22 20:37 | -31.00041 | -71.08041 | 17083 ft | 263 kts | 168° |
| 2026-04-22 20:37 | -31.01816 | -71.07508 | 17084 ft | 263 kts | 168° |
| 2026-04-22 20:38 | -31.03592 | -71.06975 | 17083 ft | 263 kts | 168° |
| 2026-04-22 20:38 | -31.05362 | -71.06443 | 17087 ft | 263 kts | 168° |
| 2026-04-22 20:38 | -31.07137 | -71.05910 | 17094 ft | 263 kts | 168° |
| 2026-04-22 20:38 | -31.08912 | -71.05376 | 17094 ft | 264 kts | 167° |
| 2026-04-22 20:39 | -31.10688 | -71.04842 | 17095 ft | 263 kts | 168° |
| 2026-04-22 20:39 | -31.12439 | -71.04315 | 17096 ft | 263 kts | 168° |
| 2026-04-22 20:39 | -31.14216 | -71.03781 | 17102 ft | 263 kts | 167° |
| 2026-04-22 20:39 | -31.15990 | -71.03246 | 17101 ft | 264 kts | 167° |
| 2026-04-22 20:40 | -31.17765 | -71.02712 | 17105 ft | 263 kts | 168° |
| 2026-04-22 20:40 | -31.19539 | -71.02177 | 17104 ft | 264 kts | 168° |
| 2026-04-22 20:40 | -31.21316 | -71.01642 | 17113 ft | 264 kts | 168° |
| 2026-04-22 20:40 | -31.23099 | -71.01104 | 17110 ft | 265 kts | 168° |
| 2026-04-22 20:41 | -31.24880 | -71.00566 | 17116 ft | 264 kts | 167° |
| 2026-04-22 20:41 | -31.26658 | -71.00029 | 17116 ft | 264 kts | 167° |
| 2026-04-22 20:41 | -31.28439 | -70.99491 | 17117 ft | 263 kts | 168° |
| 2026-04-22 20:41 | -31.30211 | -70.98957 | 17126 ft | 263 kts | 168° |
| 2026-04-22 20:42 | -31.31988 | -70.98420 | 17123 ft | 264 kts | 167° |
| 2026-04-22 20:42 | -31.33776 | -70.97878 | 17122 ft | 264 kts | 168° |
| 2026-04-22 20:42 | -31.35546 | -70.97342 | 17127 ft | 262 kts | 167° |
| 2026-04-22 20:42 | -31.37309 | -70.96810 | 17131 ft | 262 kts | 168° |
| 2026-04-22 20:43 | -31.39056 | -70.96283 | 17132 ft | 263 kts | 168° |
| 2026-04-22 20:43 | -31.40832 | -70.95744 | 17130 ft | 264 kts | 168° |
| 2026-04-22 20:43 | -31.42612 | -70.95205 | 17136 ft | 264 kts | 168° |
| 2026-04-22 20:43 | -31.44394 | -70.94664 | 17142 ft | 265 kts | 168° |
| 2026-04-22 20:44 | -31.46180 | -70.94123 | 17144 ft | 265 kts | 168° |
| 2026-04-22 20:44 | -31.47968 | -70.93580 | 17141 ft | 265 kts | 167° |
| 2026-04-22 20:44 | -31.49752 | -70.93040 | 17144 ft | 264 kts | 168° |
| 2026-04-22 20:44 | -31.51534 | -70.92500 | 17140 ft | 264 kts | 167° |
| 2026-04-22 20:45 | -31.53313 | -70.91958 | 17143 ft | 264 kts | 167° |
| 2026-04-22 20:45 | -31.55086 | -70.91420 | 17138 ft | 264 kts | 167° |
| 2026-04-22 20:45 | -31.56864 | -70.90880 | 17132 ft | 263 kts | 167° |
| 2026-04-22 20:45 | -31.58636 | -70.90341 | 17143 ft | 263 kts | 168° |
| 2026-04-22 20:46 | -31.62190 | -70.89261 | 17138 ft | 263 kts | 167° |
| 2026-04-22 20:46 | -31.63960 | -70.88721 | 17142 ft | 263 kts | 168° |
| 2026-04-22 20:46 | -31.65729 | -70.88182 | 17140 ft | 263 kts | 167° |
| 2026-04-22 20:47 | -31.67483 | -70.87649 | 17135 ft | 263 kts | 168° |
| 2026-04-22 20:47 | -31.69248 | -70.87111 | 17141 ft | 262 kts | 167° |
| 2026-04-22 20:47 | -31.71011 | -70.86574 | 17144 ft | 262 kts | 167° |
| 2026-04-22 20:47 | -31.72778 | -70.86035 | 17128 ft | 262 kts | 167° |
| 2026-04-22 20:48 | -31.74539 | -70.85500 | 17139 ft | 261 kts | 168° |
| 2026-04-22 20:48 | -31.76306 | -70.85254 | 17141 ft | 259 kts | 182° |
| 2026-04-22 20:48 | -31.78142 | -70.85218 | 17131 ft | 260 kts | 181° |
| 2026-04-22 20:48 | -31.79952 | -70.85140 | 17134 ft | 260 kts | 180° |
| 2026-04-22 20:49 | -31.81756 | -70.85066 | 17137 ft | 260 kts | 181° |
| 2026-04-22 20:49 | -31.83560 | -70.85007 | 17137 ft | 260 kts | 181° |
| 2026-04-22 20:49 | -31.85367 | -70.84946 | 17133 ft | 260 kts | 181° |
| 2026-04-22 20:49 | -31.87174 | -70.84880 | 17136 ft | 259 kts | 181° |
| 2026-04-22 20:50 | -31.88981 | -70.84815 | 17137 ft | 260 kts | 181° |
| 2026-04-22 20:50 | -31.90786 | -70.84751 | 17139 ft | 260 kts | 181° |
| 2026-04-22 20:50 | -31.92591 | -70.84687 | 17139 ft | 259 kts | 181° |
| 2026-04-22 20:50 | -31.94397 | -70.84622 | 17137 ft | 260 kts | 181° |
| 2026-04-22 20:51 | -31.96184 | -70.84558 | 17134 ft | 260 kts | 181° |
| 2026-04-22 20:51 | -31.97990 | -70.84495 | 17135 ft | 260 kts | 181° |
| 2026-04-22 20:51 | -31.99800 | -70.84431 | 17137 ft | 260 kts | 181° |
| 2026-04-22 20:51 | -32.01616 | -70.84364 | 17132 ft | 261 kts | 181° |
| 2026-04-22 20:52 | -32.03426 | -70.84301 | 17129 ft | 260 kts | 181° |
| 2026-04-22 20:52 | -32.05231 | -70.84237 | 17130 ft | 259 kts | 180° |
| 2026-04-22 20:52 | -32.07036 | -70.84172 | 17131 ft | 259 kts | 180° |
| 2026-04-22 20:52 | -32.08836 | -70.84107 | 17133 ft | 258 kts | 181° |
| 2026-04-22 20:53 | -32.10634 | -70.84043 | 17133 ft | 258 kts | 180° |
| 2026-04-22 20:53 | -32.12423 | -70.83979 | 17135 ft | 257 kts | 181° |
| 2026-04-22 20:53 | -32.14208 | -70.83915 | 17135 ft | 257 kts | 181° |
| 2026-04-22 20:53 | -32.15993 | -70.83851 | 17132 ft | 256 kts | 181° |
| 2026-04-22 20:54 | -32.17775 | -70.83788 | 17135 ft | 256 kts | 181° |
| 2026-04-22 20:54 | -32.19559 | -70.83724 | 17135 ft | 257 kts | 181° |
| 2026-04-22 20:54 | -32.21344 | -70.83660 | 17137 ft | 257 kts | 181° |
| 2026-04-22 20:54 | -32.22525 | -70.83617 | 17135 ft | 256 kts | 181° |
| 2026-04-22 20:55 | -32.24307 | -70.83554 | 17139 ft | 256 kts | 181° |
| 2026-04-22 20:55 | -32.26096 | -70.83489 | 17136 ft | 256 kts | 181° |
| 2026-04-22 20:55 | -32.28462 | -70.83405 | 17141 ft | 257 kts | 181° |
| 2026-04-22 20:55 | -32.29674 | -70.83361 | 17140 ft | 257 kts | 181° |
| 2026-04-22 20:56 | -32.31462 | -70.83297 | 17142 ft | 257 kts | 181° |
| 2026-04-22 20:56 | -32.33230 | -70.83233 | 17143 ft | 257 kts | 181° |
| 2026-04-22 20:56 | -32.35018 | -70.83169 | 17140 ft | 257 kts | 180° |
| 2026-04-22 20:56 | -32.36811 | -70.83105 | 16907 ft | 259 kts | 181° |
| 2026-04-22 20:57 | -32.38627 | -70.83041 | 16647 ft | 262 kts | 181° |
| 2026-04-22 20:57 | -32.40462 | -70.82974 | 16388 ft | 264 kts | 180° |
| 2026-04-22 20:57 | -32.42303 | -70.82908 | 16155 ft | 265 kts | 180° |
| 2026-04-22 20:57 | -32.44147 | -70.82841 | 15902 ft | 266 kts | 180° |
| 2026-04-22 20:58 | -32.46001 | -70.82773 | 15663 ft | 266 kts | 180° |
| 2026-04-22 20:58 | -32.47826 | -70.82708 | 15423 ft | 266 kts | 180° |
| 2026-04-22 20:58 | -32.49676 | -70.82642 | 15172 ft | 266 kts | 180° |
| 2026-04-22 20:58 | -32.51527 | -70.82576 | 14912 ft | 265 kts | 180° |
| 2026-04-22 20:59 | -32.53371 | -70.82509 | 14638 ft | 265 kts | 180° |
| 2026-04-22 20:59 | -32.55216 | -70.82442 | 14409 ft | 264 kts | 180° |
| 2026-04-22 20:59 | -32.57055 | -70.82375 | 14206 ft | 264 kts | 180° |
| 2026-04-22 20:59 | -32.58891 | -70.82309 | 13998 ft | 264 kts | 180° |
| 2026-04-22 21:00 | -32.60723 | -70.82243 | 13787 ft | 263 kts | 180° |
| 2026-04-22 21:00 | -32.62556 | -70.82177 | 13564 ft | 263 kts | 180° |
| 2026-04-22 21:00 | -32.64383 | -70.82110 | 13328 ft | 262 kts | 180° |
| 2026-04-22 21:00 | -32.66198 | -70.82044 | 13057 ft | 261 kts | 180° |
| 2026-04-22 21:01 | -32.68009 | -70.81980 | 12796 ft | 259 kts | 179° |
| 2026-04-22 21:01 | -32.69783 | -70.81915 | 12496 ft | 258 kts | 179° |
| 2026-04-22 21:01 | -32.71578 | -70.81847 | 12224 ft | 257 kts | 179° |
| 2026-04-22 21:01 | -32.73383 | -70.81785 | 11969 ft | 256 kts | 180° |
| 2026-04-22 21:02 | -32.75135 | -70.81722 | 11730 ft | 254 kts | 180° |
| 2026-04-22 21:02 | -32.76901 | -70.81657 | 11495 ft | 253 kts | 180° |
| 2026-04-22 21:02 | -32.78651 | -70.81594 | 11258 ft | 251 kts | 180° |
| 2026-04-22 21:02 | -32.80385 | -70.81530 | 11053 ft | 247 kts | 179° |
| 2026-04-22 21:03 | -32.82097 | -70.81466 | 10827 ft | 245 kts | 179° |
| 2026-04-22 21:03 | -32.83793 | -70.81407 | 10647 ft | 242 kts | 180° |
| 2026-04-22 21:03 | -32.85473 | -70.81347 | 10418 ft | 241 kts | 179° |
| 2026-04-22 21:03 | -32.87137 | -70.81285 | 10210 ft | 239 kts | 179° |
| 2026-04-22 21:04 | -32.88795 | -70.81224 | 9971 ft | 238 kts | 179° |
| 2026-04-22 21:04 | -32.90452 | -70.81164 | 9726 ft | 237 kts | 179° |
| 2026-04-22 21:04 | -32.92106 | -70.81105 | 9396 ft | 239 kts | 179° |
| 2026-04-22 21:04 | -32.93772 | -70.81024 | 9056 ft | 240 kts | 178° |
| 2026-04-22 21:05 | -32.95438 | -70.80924 | 8718 ft | 240 kts | 178° |
| 2026-04-22 21:05 | -32.97100 | -70.80834 | 8399 ft | 237 kts | 178° |
| 2026-04-22 21:05 | -32.98730 | -70.80748 | 8104 ft | 233 kts | 178° |
| 2026-04-22 21:05 | -33.00339 | -70.80665 | 7801 ft | 230 kts | 179° |
| 2026-04-22 21:06 | -33.01932 | -70.80579 | 7470 ft | 228 kts | 178° |
| 2026-04-22 21:06 | -33.03494 | -70.80490 | 7213 ft | 222 kts | 178° |
| 2026-04-22 21:06 | -33.05003 | -70.80413 | 6937 ft | 218 kts | 178° |
| 2026-04-22 21:06 | -33.06503 | -70.80344 | 6674 ft | 214 kts | 177° |
| 2026-04-22 21:07 | -33.07979 | -70.80259 | 6397 ft | 211 kts | 177° |
| 2026-04-22 21:07 | -33.09434 | -70.80178 | 6137 ft | 207 kts | 177° |
| 2026-04-22 21:07 | -33.10859 | -70.80103 | 5908 ft | 203 kts | 177° |
| 2026-04-22 21:07 | -33.12262 | -70.80030 | 5683 ft | 200 kts | 177° |
| 2026-04-22 21:08 | -33.13642 | -70.79963 | 5469 ft | 197 kts | 177° |
| 2026-04-22 21:08 | -33.15007 | -70.79891 | 5268 ft | 195 kts | 176° |
| 2026-04-22 21:08 | -33.16343 | -70.79812 | 5094 ft | 190 kts | 176° |
| 2026-04-22 21:08 | -33.17644 | -70.79743 | 4997 ft | 184 kts | 177° |
| 2026-04-22 21:09 | -33.18897 | -70.79679 | 4989 ft | 176 kts | 177° |
| 2026-04-22 21:09 | -33.20104 | -70.79615 | 4925 ft | 174 kts | 176° |
| 2026-04-22 21:09 | -33.21317 | -70.79551 | 4715 ft | 174 kts | 176° |
| 2026-04-22 21:09 | -33.22524 | -70.79486 | 4484 ft | 174 kts | 176° |
| 2026-04-22 21:10 | -33.23726 | -70.79421 | 4267 ft | 171 kts | 177° |
| 2026-04-22 21:10 | -33.24921 | -70.79355 | 4032 ft | 171 kts | 177° |
| 2026-04-22 21:10 | -33.26103 | -70.79292 | 3810 ft | 168 kts | 177° |
| 2026-04-22 21:10 | -33.27178 | -70.79232 | 3608 ft | 142 kts | 178° |
| 2026-04-22 21:11 | -33.28106 | -70.79181 | 3429 ft | 125 kts | 178° |
| 2026-04-22 21:11 | -33.28915 | -70.79135 | 3282 ft | 111 kts | 178° |
| 2026-04-22 21:11 | -33.29678 | -70.79098 | 3133 ft | 109 kts | 178° |
| 2026-04-22 21:11 | -33.30436 | -70.79058 | 2987 ft | 109 kts | 177° |
| 2026-04-22 21:12 | -33.31199 | -70.79020 | 2845 ft | 111 kts | 177° |
| 2026-04-22 21:12 | -33.31980 | -70.78975 | 2692 ft | 113 kts | 176° |
| 2026-04-22 21:12 | -33.32763 | -70.78934 | 2540 ft | 113 kts | 176° |
| 2026-04-22 21:12 | -33.33543 | -70.78890 | 2388 ft | 111 kts | 176° |
| 2026-04-22 21:13 | -33.34304 | -70.78849 | 2242 ft | 110 kts | 176° |
| 2026-04-22 21:13 | -33.35069 | -70.78808 | 2093 ft | 109 kts | 176° |
| 2026-04-22 21:13 | -33.35820 | -70.78771 | 1924 ft | 106 kts | 174° |
| 2026-04-22 21:13 | -33.36549 | -70.78724 | 1811 ft | 105 kts | 176° |
| 2026-04-22 21:14 | -33.37278 | -70.78684 | 1674 ft | 103 kts | 176° |
| 2026-04-22 21:14 | -33.37966 | -70.78649 | 1562 ft | 87 kts | 178° |
| 2026-04-22 21:14 | -33.38451 | -70.78626 | 1559 ft | 57 kts | 178° |
| 2026-04-22 21:14 | -33.38788 | -70.78605 | 1558 ft | 41 kts | 177° |
| 2026-04-22 21:15 | -33.39032 | -70.78619 | 1559 ft | 31 kts | 191° |
| 2026-04-22 21:15 | -33.39206 | -70.78702 | 1558 ft | 24 kts | 208° |
| 2026-04-22 21:15 | -33.39305 | -70.78823 | 1558 ft | 20 kts | 266° |
| 2026-04-22 21:15 | -33.39309 | -70.78979 | 1559 ft | 18 kts | 267° |
| 2026-04-22 21:16 | -33.39313 | -70.79123 | 1559 ft | 16 kts | 273° |
| 2026-04-22 21:16 | -33.39238 | -70.79144 | 1558 ft | 13 kts | 1° |
| 2026-04-22 21:16 | -33.39153 | -70.79151 | 1558 ft | 12 kts | 356° |
| 2026-04-22 21:16 | -33.39082 | -70.79182 | 1558 ft | 10 kts | 353° |
| 2026-04-22 21:17 | -33.39108 | -70.79153 | 1558 ft | 7 kts | 175° |
| 2026-04-22 21:17 | -33.39165 | -70.79148 | 1558 ft | 9 kts | 177° |
| 2026-04-22 21:17 | -33.39210 | -70.79159 | 1558 ft | 6 kts | 255° |
| 2026-04-22 21:17 | -33.39235 | -70.79206 | 1559 ft | 8 kts | 209° |
| 2026-04-22 21:18 | -33.39252 | -70.79232 | 1559 ft | 0 kts | 252° |